createdAt,value
2018-03-16T00:02:25.028Z,67.74
2018-03-16T00:04:53.364Z,68.37
2018-03-16T00:07:21.712Z,68.18
2018-03-16T00:09:50.028Z,68.29
2018-03-16T00:12:18.345Z,68.19
2018-03-16T00:14:46.716Z,67.19
2018-03-16T00:17:15.974Z,67.59
2018-03-16T00:19:44.308Z,68.21
2018-03-16T00:25:22.863Z,68.92
2018-03-16T00:27:51.976Z,68.52
2018-03-16T00:30:20.500Z,69.28
2018-03-16T00:32:48.840Z,69.25
2018-03-16T00:35:17.641Z,69.59
2018-03-16T00:37:45.960Z,69.37
2018-03-16T00:40:14.366Z,69.69
2018-03-16T00:42:42.987Z,69.18
2018-03-16T00:45:11.320Z,68.44
2018-03-16T00:47:40.405Z,69.01
2018-03-16T00:50:08.768Z,68.90
2018-03-16T00:52:37.102Z,68.69
2018-03-16T00:55:05.460Z,68.21
2018-03-16T00:57:34.576Z,69.21
2018-03-16T01:00:02.876Z,69.03
2018-03-16T01:02:31.190Z,68.83
2018-03-16T01:04:59.771Z,68.83
2018-03-16T01:07:28.123Z,68.49
2018-03-16T01:09:56.444Z,69.30
2018-03-16T01:12:26.203Z,68.51
2018-03-16T01:14:54.641Z,68.91
2018-03-16T01:17:22.969Z,69.20
2018-03-16T01:19:51.332Z,69.54
2018-03-16T01:22:19.697Z,69.69
2018-03-16T01:24:48.028Z,69.16
2018-03-16T01:27:16.507Z,69.05
2018-03-16T01:29:44.825Z,69.74
2018-03-16T01:32:13.919Z,68.97
2018-03-16T01:34:42.306Z,69.32
2018-03-16T01:37:10.641Z,68.74
2018-03-16T01:39:38.999Z,68.30
2018-03-16T01:42:07.358Z,68.65
2018-03-16T01:44:35.685Z,68.83
2018-03-16T01:47:04.009Z,68.13
2018-03-16T01:49:32.846Z,68.27
2018-03-16T01:52:01.157Z,68.53
2018-03-16T01:54:30.285Z,68.33
2018-03-16T01:56:58.664Z,68.34
2018-03-16T01:59:26.978Z,68.30
2018-03-16T02:01:55.296Z,68.17
2018-03-16T02:04:23.639Z,68.67
2018-03-16T02:06:51.953Z,69.33
2018-03-16T02:09:20.256Z,68.79
2018-03-16T02:11:49.086Z,68.29
2018-03-16T02:14:17.413Z,68.27
2018-03-16T02:16:45.722Z,67.61
2018-03-16T02:19:14.057Z,67.45
2018-03-16T02:21:42.444Z,67.20
2018-03-16T02:24:10.792Z,68.36
2018-03-16T02:26:40.161Z,68.08
2018-03-16T02:29:08.466Z,68.10
2018-03-16T02:31:36.785Z,67.74
2018-03-16T02:34:05.428Z,67.65
2018-03-16T02:36:34.541Z,67.46
2018-03-16T02:39:03.622Z,67.40
2018-03-16T02:41:31.936Z,66.99
2018-03-16T02:44:00.275Z,66.96
2018-03-16T02:46:29.376Z,66.18
2018-03-16T02:48:58.533Z,66.26
2018-03-16T02:51:26.840Z,65.51
2018-03-16T02:53:55.149Z,65.95
2018-03-16T02:56:23.641Z,66.71
2018-03-16T02:58:51.987Z,66.85
2018-03-16T03:01:20.312Z,66.66
2018-03-16T03:03:49.045Z,67.37
2018-03-16T03:06:17.380Z,66.77
2018-03-16T03:08:45.696Z,67.55
2018-03-16T03:11:14.048Z,67.15
2018-03-16T03:13:42.353Z,66.57
2018-03-16T03:16:10.655Z,66.16
2018-03-16T03:18:39.473Z,65.39
2018-03-16T03:21:07.797Z,65.75
2018-03-16T03:23:36.092Z,66.25
2018-03-16T03:26:04.417Z,66.18
2018-03-16T03:28:32.754Z,66.66
2018-03-16T03:31:01.828Z,66.77
2018-03-16T03:33:30.208Z,66.02
2018-03-16T03:35:58.539Z,66.33
2018-03-16T03:38:26.866Z,66.11
2018-03-16T03:40:55.725Z,66.87
2018-03-16T03:43:24.032Z,66.30
2018-03-16T03:45:52.342Z,66.10
2018-03-16T03:48:21.424Z,66.69
2018-03-16T03:50:49.712Z,66.73
2018-03-16T03:53:18.797Z,66.35
2018-03-16T03:55:47.891Z,66.58
2018-03-16T03:58:16.225Z,65.90
2018-03-16T04:00:44.548Z,65.60
2018-03-16T04:03:12.961Z,65.17
2018-03-16T04:05:41.320Z,65.93
2018-03-16T04:08:10.441Z,65.76
2018-03-16T04:10:38.777Z,66.04
2018-03-16T04:13:07.869Z,65.63
2018-03-16T04:15:36.233Z,64.84
2018-03-16T04:18:04.956Z,65.22
2018-03-16T04:20:33.258Z,65.68
2018-03-16T04:23:01.756Z,64.83
2018-03-16T04:25:30.424Z,64.58
2018-03-16T04:27:58.764Z,64.09
2018-03-16T04:30:27.854Z,63.42
2018-03-16T04:32:56.206Z,63.57
2018-03-16T04:35:24.535Z,64.81
2018-03-16T04:37:52.852Z,64.95
2018-03-16T04:40:21.228Z,65.60
2018-03-16T04:42:49.552Z,64.87
2018-03-16T04:45:17.875Z,64.79
2018-03-16T04:47:46.273Z,65.24
2018-03-16T04:50:14.596Z,65.38
2018-03-16T04:52:42.923Z,66.36
2018-03-16T04:55:11.510Z,66.37
2018-03-16T04:57:39.836Z,65.68
2018-03-16T05:00:08.176Z,65.65
2018-03-16T05:02:36.517Z,65.77
2018-03-16T05:05:05.594Z,65.87
2018-03-16T05:07:34.670Z,66.34
2018-03-16T05:10:03.128Z,65.76
2018-03-16T05:12:31.434Z,66.08
2018-03-16T05:14:59.739Z,65.68
2018-03-16T05:17:28.844Z,65.50
2018-03-16T05:19:57.148Z,65.58
2018-03-16T05:22:25.469Z,63.95
2018-03-16T05:24:53.804Z,64.60
2018-03-16T05:27:22.151Z,64.58
2018-03-16T05:29:51.245Z,65.73
2018-03-16T05:32:20.821Z,65.35
2018-03-16T05:34:49.160Z,64.84
2018-03-16T05:37:17.514Z,64.35
2018-03-16T05:39:46.644Z,63.61
2018-03-16T05:42:14.990Z,64.06
2018-03-16T05:44:43.330Z,64.35
2018-03-16T05:47:11.802Z,65.39
2018-03-16T05:49:40.157Z,65.21
2018-03-16T05:52:08.744Z,65.76
2018-03-16T05:54:37.153Z,65.72
2018-03-16T05:57:05.515Z,64.97
2018-03-16T05:59:33.873Z,64.77
2018-03-16T06:02:02.227Z,64.42
2018-03-16T06:04:30.559Z,64.58
2018-03-16T06:06:58.880Z,64.89
2018-03-16T06:09:27.639Z,64.76
2018-03-16T06:11:55.975Z,64.79
2018-03-16T06:14:24.299Z,65.97
2018-03-16T06:16:52.729Z,65.33
2018-03-16T06:19:21.171Z,64.94
2018-03-16T06:21:49.480Z,64.76
2018-03-16T06:24:17.817Z,64.18
2018-03-16T06:26:46.120Z,63.44
2018-03-16T06:29:15.293Z,63.92
2018-03-16T06:31:43.901Z,64.15
2018-03-16T06:34:12.969Z,65.01
2018-03-16T06:36:41.285Z,64.36
2018-03-16T06:39:09.673Z,64.33
2018-03-16T06:41:37.988Z,64.61
2018-03-16T06:44:06.304Z,63.90
2018-03-16T06:46:35.411Z,63.87
2018-03-16T06:49:04.559Z,64.67
2018-03-16T06:51:32.864Z,64.02
2018-03-16T06:54:01.230Z,64.04
2018-03-16T06:56:29.575Z,64.66
2018-03-16T06:58:57.892Z,64.58
2018-03-16T07:01:26.318Z,63.81
2018-03-16T07:03:54.646Z,64.19
2018-03-16T07:06:22.987Z,64.36
2018-03-16T07:08:51.346Z,64.05
2018-03-16T07:11:19.687Z,63.93
2018-03-16T07:13:47.996Z,63.09
2018-03-16T07:16:16.368Z,64.37
2018-03-16T07:18:45.441Z,64.11
2018-03-16T07:21:13.769Z,63.21
2018-03-16T07:23:42.295Z,64.41
2018-03-16T07:26:10.607Z,64.76
2018-03-16T07:28:38.943Z,64.06
2018-03-16T07:31:08.067Z,63.28
2018-03-16T07:33:37.193Z,62.48
2018-03-16T07:36:05.520Z,61.59
2018-03-16T07:38:33.918Z,62.62
2018-03-16T07:41:03.040Z,64.14
2018-03-16T07:43:32.223Z,62.75
2018-03-16T07:46:04.412Z,62.62
2018-03-16T07:48:32.759Z,62.54
2018-03-16T07:51:01.061Z,62.29
2018-03-16T07:53:30.191Z,62.99
2018-03-16T07:55:58.603Z,63.10
2018-03-16T07:58:26.950Z,62.88
2018-03-16T08:00:55.390Z,61.92
2018-03-16T08:03:23.665Z,61.71
2018-03-16T08:05:52.755Z,61.02
2018-03-16T08:08:21.938Z,61.24
2018-03-16T08:10:50.320Z,60.96
2018-03-16T08:13:18.656Z,61.54
2018-03-16T08:15:46.997Z,61.98
2018-03-16T08:18:15.346Z,61.75
2018-03-16T08:20:43.707Z,61.35
2018-03-16T08:23:12.067Z,62.58
2018-03-16T08:25:40.421Z,60.97
2018-03-16T08:28:09.594Z,61.61
2018-03-16T08:30:38.274Z,61.96
2018-03-16T08:33:06.570Z,61.84
2018-03-16T08:35:34.930Z,61.58
2018-03-16T08:38:03.249Z,60.22
2018-03-16T08:40:31.614Z,59.37
2018-03-16T08:43:00.013Z,60.55
2018-03-16T08:45:28.380Z,60.83
2018-03-16T08:47:56.710Z,60.09
2018-03-16T08:50:25.033Z,60.72
2018-03-16T08:52:54.345Z,60.25
2018-03-16T08:55:22.684Z,59.85
2018-03-16T08:57:50.986Z,59.26
2018-03-16T09:00:19.383Z,58.41
2018-03-16T09:02:47.752Z,58.32
2018-03-16T09:05:16.043Z,58.12
2018-03-16T09:07:45.049Z,59.85
2018-03-16T09:10:13.365Z,59.59
2018-03-16T09:12:41.719Z,59.42
2018-03-16T09:15:10.096Z,59.51
2018-03-16T09:17:38.446Z,59.74
2018-03-16T09:20:06.790Z,58.94
2018-03-16T09:22:35.184Z,59.19
2018-03-16T09:25:04.309Z,59.93
2018-03-16T09:27:32.635Z,58.69
2018-03-16T09:30:00.977Z,58.75
2018-03-16T09:32:29.289Z,58.20
2018-03-16T09:34:57.604Z,59.36
2018-03-16T09:37:26.317Z,58.52
2018-03-16T09:39:54.645Z,58.91
2018-03-16T09:42:23.019Z,57.76
2018-03-16T09:44:51.414Z,58.70
2018-03-16T09:47:20.489Z,58.46
2018-03-16T09:49:49.572Z,58.03
2018-03-16T09:52:17.915Z,57.87
2018-03-16T09:55:03.854Z,57.57
2018-03-16T09:57:32.546Z,57.03
2018-03-16T10:00:00.861Z,58.14
2018-03-16T10:02:29.206Z,58.33
2018-03-16T10:04:57.550Z,58.01
2018-03-16T10:07:25.913Z,57.55
2018-03-16T10:09:54.187Z,56.56
2018-03-16T10:12:22.540Z,57.06
2018-03-16T10:14:51.615Z,57.23
2018-03-16T10:17:19.964Z,56.87
2018-03-16T10:19:48.690Z,56.92
2018-03-16T10:22:17.073Z,57.70
2018-03-16T10:24:46.160Z,56.58
2018-03-16T10:27:14.470Z,56.96
2018-03-16T10:29:42.823Z,57.63
2018-03-16T10:32:11.146Z,56.88
2018-03-16T10:34:39.493Z,57.52
2018-03-16T10:37:08.675Z,56.69
2018-03-16T10:39:37.010Z,55.60
2018-03-16T10:42:05.483Z,56.14
2018-03-16T10:44:33.962Z,55.96
2018-03-16T10:47:02.318Z,55.67
2018-03-16T10:49:31.444Z,56.46
2018-03-16T10:51:59.769Z,56.46
2018-03-16T10:54:28.104Z,56.21
2018-03-16T10:56:57.147Z,55.73
2018-03-16T10:59:26.242Z,55.24
2018-03-16T11:01:56.537Z,56.14
2018-03-16T11:04:30.005Z,55.28
2018-03-16T11:07:03.750Z,54.52
2018-03-16T11:09:32.234Z,54.58
2018-03-16T11:12:00.786Z,54.38
2018-03-16T11:14:29.094Z,53.46
2018-03-16T11:16:57.535Z,53.79
2018-03-16T11:19:25.866Z,53.62
2018-03-16T11:21:54.655Z,54.32
2018-03-16T11:24:24.166Z,53.83
2018-03-16T11:26:52.479Z,53.17
2018-03-16T11:29:20.878Z,52.78
2018-03-16T11:31:49.227Z,53.25
2018-03-16T11:34:17.567Z,53.40
2018-03-16T11:36:45.912Z,53.44
2018-03-16T11:39:14.256Z,52.42
2018-03-16T11:41:42.566Z,53.70
2018-03-16T11:44:10.884Z,53.09
2018-03-16T11:46:39.701Z,53.25
2018-03-16T11:49:08.055Z,54.22
2018-03-16T11:51:37.124Z,53.58
2018-03-16T11:54:05.494Z,53.16
2018-03-16T11:56:33.838Z,53.15
2018-03-16T11:59:02.136Z,53.30
2018-03-16T12:01:31.242Z,53.36
2018-03-16T12:03:59.584Z,55.01
2018-03-16T12:06:28.750Z,54.81
2018-03-16T12:08:57.155Z,54.59
2018-03-16T12:11:26.225Z,54.51
2018-03-16T12:13:54.589Z,54.92
2018-03-16T12:16:22.950Z,55.49
2018-03-16T12:18:51.315Z,55.22
2018-03-16T12:21:19.650Z,55.34
2018-03-16T12:23:47.997Z,56.61
2018-03-16T12:26:16.330Z,55.36
2018-03-16T12:28:49.888Z,54.90
2018-03-16T12:31:14.068Z,54.71
2018-03-16T12:33:42.360Z,54.72
2018-03-16T12:36:10.717Z,54.62
2018-03-16T12:38:39.303Z,54.62
2018-03-16T12:41:07.604Z,54.66
2018-03-16T12:43:36.040Z,55.34
2018-03-16T12:46:04.394Z,55.52
2018-03-16T12:48:33.489Z,54.41
2018-03-16T12:51:02.586Z,55.27
2018-03-16T12:53:31.065Z,55.46
2018-03-16T12:56:00.182Z,55.16
2018-03-16T12:58:28.507Z,54.69
2018-03-16T13:00:56.920Z,54.83
2018-03-16T13:03:26.008Z,54.52
2018-03-16T13:05:55.109Z,54.89
2018-03-16T13:08:24.244Z,55.04
2018-03-16T13:10:52.657Z,54.91
2018-03-16T13:13:20.965Z,55.06
2018-03-16T13:15:50.776Z,55.16
2018-03-16T13:18:19.878Z,54.68
2018-03-16T13:20:48.186Z,54.38
2018-03-16T13:23:16.620Z,54.41
2018-03-16T13:25:44.912Z,53.64
2018-03-16T13:28:13.286Z,54.37
2018-03-16T13:30:42.388Z,54.48
2018-03-16T13:33:11.492Z,54.73
2018-03-16T13:35:39.829Z,54.19
2018-03-16T13:38:08.318Z,54.49
2018-03-16T13:40:36.640Z,53.49
2018-03-16T13:43:04.958Z,53.26
2018-03-16T13:45:34.141Z,52.78
2018-03-16T13:48:02.553Z,53.59
2018-03-16T13:50:30.916Z,52.98
2018-03-16T13:52:59.517Z,52.67
2018-03-16T13:55:30.819Z,52.79
2018-03-16T13:57:59.180Z,53.67
2018-03-16T14:00:28.137Z,52.36
2018-03-16T14:02:56.447Z,52.58
2018-03-16T14:05:24.772Z,52.32
2018-03-16T14:07:53.229Z,51.72
2018-03-16T14:10:21.563Z,52.55
2018-03-16T14:12:49.927Z,52.17
2018-03-16T14:15:18.278Z,52.99
2018-03-16T14:17:46.615Z,51.77
2018-03-16T14:20:15.717Z,51.48
2018-03-16T14:22:44.184Z,51.56
2018-03-16T14:25:13.270Z,52.71
2018-03-16T14:27:41.618Z,52.91
2018-03-16T14:30:10.250Z,52.71
2018-03-16T14:32:39.328Z,52.33
2018-03-16T14:35:07.622Z,52.60
2018-03-16T14:37:36.036Z,52.41
2018-03-16T14:40:04.404Z,51.96
2018-03-16T14:42:32.767Z,51.68
2018-03-16T14:45:01.434Z,52.56
2018-03-16T14:47:29.770Z,52.17
2018-03-16T14:49:58.585Z,51.81
2018-03-16T14:52:26.969Z,51.89
2018-03-16T14:54:55.306Z,51.63
2018-03-16T14:57:23.596Z,51.77
2018-03-16T14:59:51.977Z,51.61
2018-03-16T15:02:20.462Z,51.29
2018-03-16T15:04:48.758Z,51.58
2018-03-16T15:07:17.567Z,51.53
2018-03-16T15:09:46.652Z,51.16
2018-03-16T15:12:14.952Z,51.50
2018-03-16T15:14:44.148Z,51.74
2018-03-16T15:17:13.251Z,52.06
2018-03-16T15:19:42.417Z,52.07
2018-03-16T15:22:10.948Z,51.37
2018-03-16T15:24:39.418Z,51.72
2018-03-16T15:27:07.781Z,51.43
2018-03-16T15:29:37.338Z,51.88
2018-03-16T15:32:05.786Z,51.82
2018-03-16T15:34:34.380Z,51.74
2018-03-16T15:37:03.050Z,52.30
2018-03-16T15:39:31.549Z,51.20
2018-03-16T15:41:59.981Z,50.82
2018-03-16T15:44:28.975Z,50.11
2018-03-16T15:46:57.361Z,50.08
2018-03-16T15:49:25.788Z,50.02
2018-03-16T15:51:54.629Z,49.94
2018-03-16T15:54:23.005Z,50.36
2018-03-16T15:56:51.368Z,50.28
2018-03-16T15:59:19.953Z,50.80
2018-03-16T16:01:48.729Z,50.75
2018-03-16T16:04:17.121Z,51.33
2018-03-16T16:06:45.530Z,51.24
2018-03-16T16:09:13.896Z,51.45
2018-03-16T16:11:42.351Z,50.79
2018-03-16T16:14:11.278Z,50.85
2018-03-16T16:16:39.660Z,50.52
2018-03-16T16:19:08.797Z,50.06
2018-03-16T16:21:37.549Z,50.12
2018-03-16T16:24:05.914Z,49.82
2018-03-16T16:26:34.306Z,49.98
2018-03-16T16:29:02.778Z,50.67
2018-03-16T16:31:31.130Z,50.25
2018-03-16T16:33:59.617Z,50.42
2018-03-16T16:36:28.088Z,51.09
2018-03-16T16:38:56.446Z,50.58
2018-03-16T16:41:24.794Z,50.58
2018-03-16T16:43:53.265Z,49.78
2018-03-16T16:46:21.651Z,50.60
2018-03-16T16:48:50.123Z,50.47
2018-03-16T16:51:18.529Z,50.59
2018-03-16T16:53:46.954Z,51.04
2018-03-16T16:56:15.389Z,51.36
2018-03-16T16:58:44.937Z,51.92
2018-03-16T17:01:13.281Z,51.73
2018-03-16T17:03:42.374Z,52.34
2018-03-16T17:06:10.716Z,52.35
2018-03-16T17:08:39.059Z,52.95
2018-03-16T17:11:07.374Z,53.11
2018-03-16T17:13:35.744Z,53.33
2018-03-16T17:16:04.865Z,52.91
2018-03-16T17:18:33.200Z,52.30
2018-03-16T17:21:01.789Z,51.03
2018-03-16T17:23:30.105Z,51.74
2018-03-16T17:25:58.454Z,52.39
2018-03-16T17:28:26.820Z,52.58
2018-03-16T17:30:55.131Z,52.88
2018-03-16T17:33:23.490Z,53.43
2018-03-16T17:35:52.310Z,52.76
2018-03-16T17:38:20.652Z,52.96
2018-03-16T17:40:48.966Z,53.89
2018-03-16T17:43:17.470Z,52.71
2018-03-16T17:45:45.818Z,52.27
2018-03-16T17:48:14.341Z,52.79
2018-03-16T17:50:42.707Z,51.00
2018-03-16T17:53:11.806Z,51.75
2018-03-16T17:55:40.154Z,51.20
2018-03-16T17:58:08.527Z,51.29
2018-03-16T18:00:36.870Z,51.70
2018-03-16T18:03:05.190Z,51.17
2018-03-16T18:05:34.097Z,51.42
2018-03-16T18:08:02.451Z,50.78
2018-03-16T18:10:30.769Z,51.16
2018-03-16T18:12:59.368Z,50.85
2018-03-16T18:15:27.686Z,51.47
2018-03-16T18:17:56.060Z,51.44
2018-03-16T18:20:24.402Z,51.31
2018-03-16T18:22:52.747Z,50.80
2018-03-16T18:25:21.916Z,50.96
2018-03-16T18:27:50.493Z,50.75
2018-03-16T18:30:18.830Z,50.59
2018-03-16T18:32:47.895Z,50.77
2018-03-16T18:35:16.239Z,50.47
2018-03-16T18:37:44.545Z,48.93
2018-03-16T18:40:12.842Z,50.08
2018-03-16T18:42:41.986Z,50.10
2018-03-16T18:45:10.329Z,49.47
2018-03-16T18:47:39.437Z,48.73
2018-03-16T18:50:09.042Z,49.37
2018-03-16T18:52:37.387Z,49.46
2018-03-16T18:55:05.698Z,49.56
2018-03-16T18:57:34.068Z,49.46
2018-03-16T19:00:03.142Z,50.06
2018-03-16T19:02:31.499Z,50.18
2018-03-16T19:04:59.885Z,50.03
2018-03-16T19:07:28.987Z,49.32
2018-03-16T19:09:57.362Z,50.31
2018-03-16T19:12:26.291Z,51.11
2018-03-16T19:14:55.388Z,51.59
2018-03-16T19:17:23.861Z,50.58
2018-03-16T19:19:52.281Z,50.96
2018-03-16T19:22:20.627Z,51.58
2018-03-16T19:24:48.977Z,51.24
2018-03-16T19:27:17.583Z,51.59
2018-03-16T19:29:45.902Z,50.71
2018-03-16T19:32:14.240Z,51.61
2018-03-16T19:34:43.582Z,51.97
2018-03-16T19:37:12.030Z,51.31
2018-03-16T19:39:41.150Z,51.60
2018-03-16T19:42:09.545Z,51.68
2018-03-16T19:44:37.869Z,51.66
2018-03-16T19:47:07.048Z,51.66
2018-03-16T19:49:35.406Z,51.92
2018-03-16T19:52:03.718Z,52.28
2018-03-16T19:54:32.137Z,51.16
2018-03-16T19:57:00.543Z,51.27
2018-03-16T19:59:28.901Z,51.84
2018-03-16T20:01:57.239Z,51.63
2018-03-16T20:04:26.031Z,51.50
2018-03-16T20:06:54.368Z,51.23
2018-03-16T20:09:22.839Z,51.21
2018-03-16T20:11:51.204Z,51.94
2018-03-16T20:14:19.542Z,51.24
2018-03-16T20:16:47.854Z,51.74
2018-03-16T20:19:16.379Z,51.99
2018-03-16T20:21:44.708Z,51.65
2018-03-16T20:24:13.798Z,51.52
2018-03-16T20:26:42.908Z,52.02
2018-03-16T20:29:12.014Z,51.54
2018-03-16T20:31:40.599Z,51.92
2018-03-16T20:34:08.935Z,52.34
2018-03-16T20:36:37.254Z,51.78
2018-03-16T20:39:05.590Z,51.43
2018-03-16T20:41:34.516Z,51.26
2018-03-16T20:44:02.839Z,50.54
2018-03-16T20:46:31.161Z,50.79
2018-03-16T20:49:00.302Z,49.92
2018-03-16T20:51:28.632Z,50.52
2018-03-16T20:53:57.448Z,50.69
2018-03-16T20:56:25.806Z,50.24
2018-03-16T20:58:54.173Z,50.71
2018-03-16T21:01:23.285Z,50.43
2018-03-16T21:03:52.717Z,50.48
2018-03-16T21:06:21.056Z,50.85
2018-03-16T21:08:50.148Z,51.11
2018-03-16T21:11:19.308Z,51.27
2018-03-16T21:13:47.670Z,51.27
2018-03-16T21:16:16.175Z,51.48
2018-03-16T21:18:44.636Z,50.62
2018-03-16T21:21:13.011Z,50.93
2018-03-16T21:23:41.381Z,51.02
2018-03-16T21:26:09.990Z,51.86
2018-03-16T21:28:38.358Z,50.26
2018-03-16T21:31:06.721Z,49.61
2018-03-16T21:33:35.116Z,49.99
2018-03-16T21:36:03.470Z,50.30
2018-03-16T21:38:31.823Z,50.35
2018-03-16T21:41:00.208Z,50.43
2018-03-16T21:43:29.320Z,50.02
2018-03-16T21:45:57.694Z,49.54
2018-03-16T21:48:26.142Z,49.20
2018-03-16T21:50:54.498Z,49.09
2018-03-16T21:53:22.917Z,48.97
2018-03-16T21:55:51.267Z,49.26
2018-03-16T21:58:19.606Z,49.04
2018-03-16T22:00:47.955Z,48.82
2018-03-16T22:03:16.337Z,48.43
2018-03-16T22:05:44.688Z,48.79
2018-03-16T22:08:13.016Z,49.35
2018-03-16T22:10:41.445Z,48.88
2018-03-16T22:13:09.816Z,48.77
2018-03-16T22:15:38.307Z,48.71
2018-03-16T22:18:06.729Z,49.30
2018-03-16T22:20:35.097Z,49.22
2018-03-16T22:23:04.221Z,48.69
2018-03-16T22:25:32.777Z,49.27
2018-03-16T22:28:02.132Z,49.24
2018-03-16T22:30:30.511Z,49.99
2018-03-16T22:32:59.000Z,49.54
2018-03-16T22:35:27.337Z,49.22
2018-03-16T22:37:55.691Z,49.26
2018-03-16T22:40:24.036Z,49.13
2018-03-16T22:42:52.738Z,49.70
2018-03-16T22:45:21.154Z,48.88
2018-03-16T22:47:50.302Z,49.21
2018-03-16T22:50:18.726Z,48.23
2018-03-16T22:52:47.403Z,48.17
2018-03-16T22:55:16.654Z,48.05
2018-03-16T22:57:45.025Z,48.18
2018-03-16T23:00:13.361Z,47.60
2018-03-16T23:02:41.767Z,47.76
2018-03-16T23:05:10.070Z,47.76
2018-03-16T23:07:38.478Z,48.34
2018-03-16T23:10:06.975Z,48.37
2018-03-16T23:12:35.455Z,48.56
2018-03-16T23:15:03.827Z,48.49
2018-03-16T23:17:32.258Z,48.25
2018-03-16T23:20:00.643Z,47.99
2018-03-16T23:22:29.030Z,48.54
2018-03-16T23:24:57.520Z,48.62
2018-03-16T23:27:25.862Z,49.12
2018-03-16T23:29:54.249Z,48.35
2018-03-16T23:32:22.653Z,47.49
2018-03-16T23:34:51.010Z,47.69
2018-03-16T23:37:19.342Z,47.23
2018-03-16T23:39:47.887Z,46.76
2018-03-16T23:42:16.195Z,46.54
2018-03-16T23:44:44.534Z,46.34
2018-03-16T23:47:12.929Z,46.37
2018-03-16T23:49:41.306Z,46.40
2018-03-16T23:52:09.690Z,46.98
2018-03-16T23:54:38.051Z,47.23
2018-03-16T23:57:06.392Z,46.98
2018-03-16T23:59:34.751Z,46.62
